sensor_id;sensor_type;location;lat;lon;timestamp;pressure;altitude;pressure_sealevel;temperature;humidity
22755;BME280;11544;42.020;23.094;2023-02-13T00:01:24;99013.34;;;-0.37;100.00
22755;BME280;11544;42.020;23.094;2023-02-13T00:03:54;99012.41;;;-0.39;100.00
22755;BME280;11544;42.020;23.094;2023-02-13T00:06:25;99017.03;;;-0.29;100.00
22755;BME280;11544;42.020;23.094;2023-02-13T00:08:52;99027.59;;;-0.44;100.00
22755;BME280;11544;42.020;23.094;2023-02-13T00:11:19;99023.03;;;-0.29;100.00
22755;BME280;11544;42.020;23.094;2023-02-13T00:13:46;99033.25;;;-0.30;100.00
22755;BME280;11544;42.020;23.094;2023-02-13T00:16:13;99038.13;;;-0.36;100.00
22755;BME280;11544;42.020;23.094;2023-02-13T00:18:40;99032.22;;;-0.11;100.00
22755;BME280;11544;42.020;23.094;2023-02-13T00:21:09;99032.59;;;-0.01;100.00
22755;BME280;11544;42.020;23.094;2023-02-13T00:23:38;99036.84;;;-0.25;100.00
22755;BME280;11544;42.020;23.094;2023-02-13T00:26:14;99030.19;;;-0.20;100.00
22755;BME280;11544;42.020;23.094;2023-02-13T00:28:42;99027.13;;;-0.34;100.00
22755;BME280;11544;42.020;23.094;2023-02-13T00:31:18;99040.72;;;-0.59;100.00
22755;BME280;11544;42.020;23.094;2023-02-13T00:37:56;99027.72;;;-0.41;100.00
22755;BME280;11544;42.020;23.094;2023-02-13T00:40:26;99034.72;;;-0.59;100.00
22755;BME280;11544;42.020;23.094;2023-02-13T00:42:54;99034.94;;;-0.53;100.00
22755;BME280;11544;42.020;23.094;2023-02-13T00:45:24;99029.59;;;-0.82;100.00
22755;BME280;11544;42.020;23.094;2023-02-13T00:48:13;99030.34;;;-0.84;100.00
22755;BME280;11544;42.020;23.094;2023-02-13T00:50:41;99034.44;;;-0.67;100.00
22755;BME280;11544;42.020;23.094;2023-02-13T00:53:11;99026.69;;;-0.91;100.00
22755;BME280;11544;42.020;23.094;2023-02-13T00:55:38;99027.53;;;-0.91;100.00
22755;BME280;11544;42.020;23.094;2023-02-13T00:58:05;99027.72;;;-0.86;100.00
22755;BME280;11544;42.020;23.094;2023-02-13T01:00:32;99031.19;;;-1.07;100.00
22755;BME280;11544;42.020;23.094;2023-02-13T01:02:59;99035.78;;;-0.54;100.00
22755;BME280;11544;42.020;23.094;2023-02-13T01:05:29;99033.41;;;-1.16;100.00
22755;BME280;11544;42.020;23.094;2023-02-13T01:07:56;99037.47;;;-0.77;100.00
22755;BME280;11544;42.020;23.094;2023-02-13T01:10:23;99039.09;;;-0.79;100.00
22755;BME280;11544;42.020;23.094;2023-02-13T01:12:52;99037.47;;;-0.77;100.00
22755;BME280;11544;42.020;23.094;2023-02-13T01:15:20;99033.59;;;-0.89;100.00
22755;BME280;11544;42.020;23.094;2023-02-13T01:17:52;99041.13;;;-1.35;100.00
22755;BME280;11544;42.020;23.094;2023-02-13T01:20:26;99043.38;;;-1.01;100.00
22755;BME280;11544;42.020;23.094;2023-02-13T01:23:07;99051.59;;;-0.87;100.00
22755;BME280;11544;42.020;23.094;2023-02-13T01:25:42;99054.53;;;-0.78;100.00
22755;BME280;11544;42.020;23.094;2023-02-13T01:39:33;99059.38;;;-0.84;100.00
22755;BME280;11544;42.020;23.094;2023-02-13T01:42:01;99059.69;;;-1.20;100.00
22755;BME280;11544;42.020;23.094;2023-02-13T01:45:13;99063.47;;;-0.89;100.00
22755;BME280;11544;42.020;23.094;2023-02-13T01:48:03;99060.34;;;-1.24;100.00
22755;BME280;11544;42.020;23.094;2023-02-13T01:50:41;99050.56;;;-1.34;100.00
22755;BME280;11544;42.020;23.094;2023-02-13T01:53:19;99052.34;;;-1.53;100.00
22755;BME280;11544;42.020;23.094;2023-02-13T01:56:19;99059.78;;;-1.38;100.00
22755;BME280;11544;42.020;23.094;2023-02-13T01:58:48;99060.16;;;-1.50;100.00
22755;BME280;11544;42.020;23.094;2023-02-13T02:01:19;99065.22;;;-1.09;100.00
22755;BME280;11544;42.020;23.094;2023-02-13T02:03:56;99063.28;;;-1.36;100.00
22755;BME280;11544;42.020;23.094;2023-02-13T02:06:35;99062.56;;;-1.74;100.00
22755;BME280;11544;42.020;23.094;2023-02-13T02:09:16;99063.53;;;-1.51;100.00
22755;BME280;11544;42.020;23.094;2023-02-13T02:12:05;99068.78;;;-1.26;100.00
22755;BME280;11544;42.020;23.094;2023-02-13T02:14:32;99074.19;;;-1.40;100.00
22755;BME280;11544;42.020;23.094;2023-02-13T02:17:03;99070.84;;;-1.39;100.00
22755;BME280;11544;42.020;23.094;2023-02-13T02:28:48;99075.81;;;-1.42;100.00
22755;BME280;11544;42.020;23.094;2023-02-13T02:39:29;99095.28;;;-1.45;100.00
22755;BME280;11544;42.020;23.094;2023-02-13T02:42:19;99083.63;;;-1.39;100.00
22755;BME280;11544;42.020;23.094;2023-02-13T02:47:56;99106.69;;;-1.78;100.00
22755;BME280;11544;42.020;23.094;2023-02-13T02:51:07;99106.25;;;-1.88;100.00
22755;BME280;11544;42.020;23.094;2023-02-13T02:53:40;99106.50;;;-1.63;100.00
22755;BME280;11544;42.020;23.094;2023-02-13T02:56:39;99113.53;;;-1.96;100.00
22755;BME280;11544;42.020;23.094;2023-02-13T03:11:25;99124.09;;;-2.08;100.00
22755;BME280;11544;42.020;23.094;2023-02-13T03:14:10;99137.13;;;-1.84;100.00
22755;BME280;11544;42.020;23.094;2023-02-13T03:16:55;99133.31;;;-2.11;100.00
22755;BME280;11544;42.020;23.094;2023-02-13T03:20:02;99131.94;;;-2.23;100.00
22755;BME280;11544;42.020;23.094;2023-02-13T03:39:55;99155.47;;;-2.30;100.00
22755;BME280;11544;42.020;23.094;2023-02-13T03:42:43;99148.75;;;-2.10;100.00
22755;BME280;11544;42.020;23.094;2023-02-13T03:45:20;99146.84;;;-2.14;100.00
22755;BME280;11544;42.020;23.094;2023-02-13T03:48:08;99152.59;;;-2.18;100.00
22755;BME280;11544;42.020;23.094;2023-02-13T03:51:12;99153.84;;;-2.10;100.00
22755;BME280;11544;42.020;23.094;2023-02-13T03:54:16;99152.66;;;-1.60;100.00
22755;BME280;11544;42.020;23.094;2023-02-13T04:00:50;99154.09;;;-2.04;100.00
22755;BME280;11544;42.020;23.094;2023-02-13T04:03:49;99160.38;;;-1.97;100.00
22755;BME280;11544;42.020;23.094;2023-02-13T04:06:21;99155.75;;;-1.47;100.00
22755;BME280;11544;42.020;23.094;2023-02-13T04:08:51;99163.38;;;-2.43;100.00
22755;BME280;11544;42.020;23.094;2023-02-13T04:11:28;99154.84;;;-2.06;100.00
22755;BME280;11544;42.020;23.094;2023-02-13T04:14:00;99160.94;;;-1.65;100.00
22755;BME280;11544;42.020;23.094;2023-02-13T04:16:41;99158.84;;;-1.74;100.00
22755;BME280;11544;42.020;23.094;2023-02-13T04:19:17;99159.63;;;-1.95;100.00
22755;BME280;11544;42.020;23.094;2023-02-13T04:21:59;99167.06;;;-1.81;100.00
22755;BME280;11544;42.020;23.094;2023-02-13T04:24:28;99169.41;;;-1.86;100.00
22755;BME280;11544;42.020;23.094;2023-02-13T04:27:07;99164.88;;;-1.92;100.00
22755;BME280;11544;42.020;23.094;2023-02-13T04:29:37;99171.34;;;-2.00;100.00
22755;BME280;11544;42.020;23.094;2023-02-13T04:32:04;99168.69;;;-2.21;100.00
22755;BME280;11544;42.020;23.094;2023-02-13T04:34:31;99168.38;;;-2.09;100.00
22755;BME280;11544;42.020;23.094;2023-02-13T04:37:01;99172.34;;;-1.96;100.00
22755;BME280;11544;42.020;23.094;2023-02-13T04:39:31;99169.50;;;-2.40;100.00
22755;BME280;11544;42.020;23.094;2023-02-13T04:42:06;99174.31;;;-2.46;100.00
22755;BME280;11544;42.020;23.094;2023-02-13T04:44:32;99178.63;;;-2.45;100.00
22755;BME280;11544;42.020;23.094;2023-02-13T04:46:59;99177.72;;;-2.09;100.00
22755;BME280;11544;42.020;23.094;2023-02-13T04:49:27;99181.38;;;-2.22;100.00
22755;BME280;11544;42.020;23.094;2023-02-13T04:51:54;99178.75;;;-2.78;100.00
22755;BME280;11544;42.020;23.094;2023-02-13T04:54:21;99181.75;;;-2.68;100.00
22755;BME280;11544;42.020;23.094;2023-02-13T04:56:48;99183.00;;;-2.78;100.00
22755;BME280;11544;42.020;23.094;2023-02-13T04:59:15;99195.53;;;-2.83;100.00
22755;BME280;11544;42.020;23.094;2023-02-13T05:01:48;99196.13;;;-2.70;100.00
22755;BME280;11544;42.020;23.094;2023-02-13T05:04:22;99190.00;;;-2.56;100.00
22755;BME280;11544;42.020;23.094;2023-02-13T05:06:50;99192.34;;;-2.43;100.00
22755;BME280;11544;42.020;23.094;2023-02-13T05:09:17;99198.31;;;-1.87;100.00
22755;BME280;11544;42.020;23.094;2023-02-13T05:11:44;99188.47;;;-2.17;100.00
22755;BME280;11544;42.020;23.094;2023-02-13T05:14:11;99193.09;;;-1.71;100.00
22755;BME280;11544;42.020;23.094;2023-02-13T05:16:38;99192.56;;;-2.56;100.00
22755;BME280;11544;42.020;23.094;2023-02-13T05:19:08;99200.91;;;-2.94;100.00
22755;BME280;11544;42.020;23.094;2023-02-13T05:21:41;99204.56;;;-2.55;100.00
22755;BME280;11544;42.020;23.094;2023-02-13T05:24:27;99198.53;;;-2.73;100.00
22755;BME280;11544;42.020;23.094;2023-02-13T05:26:57;99192.78;;;-2.51;100.00
22755;BME280;11544;42.020;23.094;2023-02-13T05:29:25;99199.44;;;-2.19;100.00
22755;BME280;11544;42.020;23.094;2023-02-13T05:31:54;99202.63;;;-2.41;100.00
22755;BME280;11544;42.020;23.094;2023-02-13T05:34:23;99207.66;;;-2.25;100.00
22755;BME280;11544;42.020;23.094;2023-02-13T05:36:50;99221.47;;;-2.91;100.00
22755;BME280;11544;42.020;23.094;2023-02-13T05:39:18;99203.44;;;-2.60;100.00
22755;BME280;11544;42.020;23.094;2023-02-13T05:41:46;99214.88;;;-2.70;100.00
22755;BME280;11544;42.020;23.094;2023-02-13T05:44:16;99218.59;;;-2.63;100.00
22755;BME280;11544;42.020;23.094;2023-02-13T05:46:46;99218.19;;;-2.19;100.00
22755;BME280;11544;42.020;23.094;2023-02-13T05:49:14;99221.53;;;-2.73;100.00
22755;BME280;11544;42.020;23.094;2023-02-13T05:51:42;99220.16;;;-2.49;100.00
22755;BME280;11544;42.020;23.094;2023-02-13T05:54:08;99222.28;;;-2.40;100.00
22755;BME280;11544;42.020;23.094;2023-02-13T05:56:36;99226.28;;;-2.09;100.00
22755;BME280;11544;42.020;23.094;2023-02-13T05:59:03;99224.41;;;-1.76;100.00
22755;BME280;11544;42.020;23.094;2023-02-13T06:01:36;99220.78;;;-2.53;100.00
22755;BME280;11544;42.020;23.094;2023-02-13T06:04:46;99222.38;;;-1.83;100.00
22755;BME280;11544;42.020;23.094;2023-02-13T06:07:39;99228.91;;;-2.26;100.00
22755;BME280;11544;42.020;23.094;2023-02-13T06:10:10;99222.06;;;-1.52;100.00
22755;BME280;11544;42.020;23.094;2023-02-13T06:17:13;99229.59;;;-1.75;100.00
22755;BME280;11544;42.020;23.094;2023-02-13T06:20:49;99220.56;;;-1.66;100.00
22755;BME280;11544;42.020;23.094;2023-02-13T06:24:23;99213.78;;;-1.46;100.00
22755;BME280;11544;42.020;23.094;2023-02-13T06:27:30;99214.03;;;-1.01;100.00
22755;BME280;11544;42.020;23.094;2023-02-13T06:34:39;99210.84;;;-0.96;100.00
22755;BME280;11544;42.020;23.094;2023-02-13T06:37:28;99205.47;;;-0.81;100.00
22755;BME280;11544;42.020;23.094;2023-02-13T06:41:00;99219.31;;;-0.35;100.00
22755;BME280;11544;42.020;23.094;2023-02-13T06:44:30;99208.09;;;0.06;100.00
22755;BME280;11544;42.020;23.094;2023-02-13T07:01:32;99221.84;;;0.31;100.00
22755;BME280;11544;42.020;23.094;2023-02-13T07:04:57;99232.13;;;0.31;100.00
22755;BME280;11544;42.020;23.094;2023-02-13T07:07:57;99216.25;;;1.40;98.27
22755;BME280;11544;42.020;23.094;2023-02-13T07:11:18;99216.06;;;0.84;91.05
22755;BME280;11544;42.020;23.094;2023-02-13T07:18:04;99223.34;;;0.72;88.34
22755;BME280;11544;42.020;23.094;2023-02-13T07:24:46;99226.47;;;0.17;91.90
22755;BME280;11544;42.020;23.094;2023-02-13T07:27:42;99219.91;;;0.72;90.91
22755;BME280;11544;42.020;23.094;2023-02-13T07:30:21;99214.00;;;0.74;91.88
22755;BME280;11544;42.020;23.094;2023-02-13T07:36:25;99219.72;;;0.91;91.25
22755;BME280;11544;42.020;23.094;2023-02-13T07:39:31;99216.50;;;2.31;86.20
22755;BME280;11544;42.020;23.094;2023-02-13T08:00:10;99210.50;;;1.47;85.00
22755;BME280;11544;42.020;23.094;2023-02-13T08:10:09;99203.22;;;2.46;83.16
22755;BME280;11544;42.020;23.094;2023-02-13T08:13:27;99200.25;;;2.33;83.50
22755;BME280;11544;42.020;23.094;2023-02-13T08:23:56;99194.34;;;3.33;81.07
22755;BME280;11544;42.020;23.094;2023-02-13T08:27:02;99205.81;;;2.78;80.30
22755;BME280;11544;42.020;23.094;2023-02-13T08:33:41;99206.09;;;2.57;82.39
22755;BME280;11544;42.020;23.094;2023-02-13T08:36:57;99206.88;;;3.17;82.05
22755;BME280;11544;42.020;23.094;2023-02-13T08:40:01;99202.09;;;3.00;81.90
22755;BME280;11544;42.020;23.094;2023-02-13T08:43:10;99203.81;;;2.99;82.53
22755;BME280;11544;42.020;23.094;2023-02-13T08:46:27;99198.75;;;3.72;80.29
22755;BME280;11544;42.020;23.094;2023-02-13T08:49:07;99191.66;;;3.27;79.83
22755;BME280;11544;42.020;23.094;2023-02-13T08:51:42;99185.34;;;3.87;78.49
22755;BME280;11544;42.020;23.094;2023-02-13T08:54:39;99186.94;;;3.45;79.05
22755;BME280;11544;42.020;23.094;2023-02-13T08:57:27;99182.81;;;4.29;77.71
22755;BME280;11544;42.020;23.094;2023-02-13T09:00:03;99186.03;;;3.79;76.26
22755;BME280;11544;42.020;23.094;2023-02-13T09:02:45;99193.00;;;3.84;75.38
22755;BME280;11544;42.020;23.094;2023-02-13T09:05:57;99185.75;;;4.05;74.64
22755;BME280;11544;42.020;23.094;2023-02-13T09:09:39;99178.97;;;3.72;76.62
22755;BME280;11544;42.020;23.094;2023-02-13T09:12:55;99180.38;;;3.58;78.91
22755;BME280;11544;42.020;23.094;2023-02-13T09:16:15;99178.13;;;3.72;78.14
22755;BME280;11544;42.020;23.094;2023-02-13T09:19:40;99163.97;;;4.33;77.16
22755;BME280;11544;42.020;23.094;2023-02-13T09:23:03;99159.28;;;4.14;77.83
22755;BME280;11544;42.020;23.094;2023-02-13T09:26:04;99168.09;;;4.25;75.38
22755;BME280;11544;42.020;23.094;2023-02-13T09:29:04;99163.75;;;4.22;76.08
22755;BME280;11544;42.020;23.094;2023-02-13T09:31:48;99159.69;;;4.34;75.12
22755;BME280;11544;42.020;23.094;2023-02-13T09:35:03;99156.78;;;5.08;72.74
22755;BME280;11544;42.020;23.094;2023-02-13T09:41:44;99153.31;;;5.07;69.58
22755;BME280;11544;42.020;23.094;2023-02-13T09:45:28;99143.44;;;4.85;69.05
22755;BME280;11544;42.020;23.094;2023-02-13T13:09:22;98767.94;;;8.74;47.87
22755;BME280;11544;42.020;23.094;2023-02-13T13:12:54;98773.19;;;8.58;47.59
22755;BME280;11544;42.020;23.094;2023-02-13T13:30:56;98745.41;;;8.71;48.41
22755;BME280;11544;42.020;23.094;2023-02-13T13:33:55;98742.03;;;8.55;48.60
22755;BME280;11544;42.020;23.094;2023-02-13T13:47:50;98730.72;;;8.62;46.26
22755;BME280;11544;42.020;23.094;2023-02-13T13:50:32;98726.44;;;8.47;46.46
22755;BME280;11544;42.020;23.094;2023-02-13T13:53:29;98735.06;;;8.53;46.56
22755;BME280;11544;42.020;23.094;2023-02-13T14:11:53;98709.97;;;8.38;47.09
22755;BME280;11544;42.020;23.094;2023-02-13T14:14:47;98703.06;;;8.27;46.83
22755;BME280;11544;42.020;23.094;2023-02-13T14:17:54;98704.78;;;8.36;47.37
22755;BME280;11544;42.020;23.094;2023-02-13T14:20:58;98704.78;;;8.39;47.06
22755;BME280;11544;42.020;23.094;2023-02-13T14:29:21;98700.50;;;8.18;46.49
22755;BME280;11544;42.020;23.094;2023-02-13T14:32:12;98694.44;;;8.02;47.03
22755;BME280;11544;42.020;23.094;2023-02-13T14:35:25;98687.53;;;8.04;46.57
22755;BME280;11544;42.020;23.094;2023-02-13T14:38:23;98692.69;;;8.12;46.97
22755;BME280;11544;42.020;23.094;2023-02-13T14:44:48;98690.13;;;8.15;47.59
22755;BME280;11544;42.020;23.094;2023-02-13T14:47:32;98697.84;;;8.31;46.62
22755;BME280;11544;42.020;23.094;2023-02-13T14:53:14;98691.81;;;8.19;45.85
22755;BME280;11544;42.020;23.094;2023-02-13T14:56:28;98684.94;;;8.01;46.37
22755;BME280;11544;42.020;23.094;2023-02-13T15:17:17;98677.16;;;7.72;46.99
22755;BME280;11544;42.020;23.094;2023-02-13T15:20:31;98681.53;;;7.70;47.34
22755;BME280;11544;42.020;23.094;2023-02-13T15:23:22;98676.34;;;7.75;47.83
22755;BME280;11544;42.020;23.094;2023-02-13T15:26:30;98678.91;;;7.55;48.36
22755;BME280;11544;42.020;23.094;2023-02-13T15:29:35;98675.47;;;7.68;48.29
22755;BME280;11544;42.020;23.094;2023-02-13T15:32:37;98672.00;;;7.58;48.26
22755;BME280;11544;42.020;23.094;2023-02-13T15:35:35;98678.03;;;7.57;48.12
22755;BME280;11544;42.020;23.094;2023-02-13T15:38:31;98686.69;;;7.35;48.85
22755;BME280;11544;42.020;23.094;2023-02-13T15:47:35;98694.38;;;6.86;50.29
22755;BME280;11544;42.020;23.094;2023-02-13T15:53:22;98700.34;;;6.63;52.52
22755;BME280;11544;42.020;23.094;2023-02-13T15:55:57;98709.75;;;6.41;52.88
22755;BME280;11544;42.020;23.094;2023-02-13T15:58:30;98703.47;;;6.04;53.84
22755;BME280;11544;42.020;23.094;2023-02-13T16:01:08;98714.66;;;6.00;54.59
22755;BME280;11544;42.020;23.094;2023-02-13T16:03:36;98718.09;;;5.96;55.10
22755;BME280;11544;42.020;23.094;2023-02-13T16:06:06;98726.56;;;5.78;55.51
22755;BME280;11544;42.020;23.094;2023-02-13T16:08:36;98722.59;;;5.20;56.73
22755;BME280;11544;42.020;23.094;2023-02-13T16:11:13;98732.81;;;5.08;57.58
22755;BME280;11544;42.020;23.094;2023-02-13T16:16:26;98737.84;;;4.94;58.21
22755;BME280;11544;42.020;23.094;2023-02-13T16:18:55;98737.75;;;4.88;58.53
22755;BME280;11544;42.020;23.094;2023-02-13T16:21:24;98732.41;;;4.73;58.46
22755;BME280;11544;42.020;23.094;2023-02-13T16:23:59;98734.97;;;4.71;58.97
22755;BME280;11544;42.020;23.094;2023-02-13T16:26:28;98739.34;;;4.75;58.39
22755;BME280;11544;42.020;23.094;2023-02-13T16:28:57;98735.81;;;4.69;58.76
22755;BME280;11544;42.020;23.094;2023-02-13T16:31:24;98737.44;;;4.62;59.46
22755;BME280;11544;42.020;23.094;2023-02-13T16:33:51;98730.13;;;4.29;60.78
22755;BME280;11544;42.020;23.094;2023-02-13T16:36:34;98741.16;;;4.18;60.61
22755;BME280;11544;42.020;23.094;2023-02-13T16:39:17;98735.00;;;4.10;61.64
22755;BME280;11544;42.020;23.094;2023-02-13T16:41:45;98736.84;;;4.16;61.65
22755;BME280;11544;42.020;23.094;2023-02-13T16:44:47;98732.31;;;4.02;61.96
22755;BME280;11544;42.020;23.094;2023-02-13T16:47:29;98734.47;;;3.73;62.74
22755;BME280;11544;42.020;23.094;2023-02-13T16:53:33;98741.75;;;3.46;64.91
22755;BME280;11544;42.020;23.094;2023-02-13T16:56:07;98734.63;;;3.31;65.94
22755;BME280;11544;42.020;23.094;2023-02-13T16:58:37;98727.00;;;3.40;66.32
22755;BME280;11544;42.020;23.094;2023-02-13T17:01:05;98737.28;;;3.35;66.81
22755;BME280;11544;42.020;23.094;2023-02-13T17:03:34;98733.47;;;3.15;67.74
22755;BME280;11544;42.020;23.094;2023-02-13T17:06:22;98731.69;;;3.14;68.20
22755;BME280;11544;42.020;23.094;2023-02-13T17:08:58;98735.94;;;3.10;68.51
22755;BME280;11544;42.020;23.094;2023-02-13T17:11:54;98732.59;;;3.14;68.58
22755;BME280;11544;42.020;23.094;2023-02-13T17:14:57;98736.00;;;3.12;68.23
22755;BME280;11544;42.020;23.094;2023-02-13T17:17:30;98738.53;;;3.10;68.27
22755;BME280;11544;42.020;23.094;2023-02-13T17:19:58;98739.84;;;3.37;67.87
22755;BME280;11544;42.020;23.094;2023-02-13T17:22:34;98739.84;;;3.35;67.35
22755;BME280;11544;42.020;23.094;2023-02-13T17:25:05;98741.16;;;3.13;67.24
22755;BME280;11544;42.020;23.094;2023-02-13T17:27:34;98733.31;;;3.07;68.09
22755;BME280;11544;42.020;23.094;2023-02-13T17:30:01;98736.13;;;3.20;67.45
22755;BME280;11544;42.020;23.094;2023-02-13T17:32:28;98732.69;;;3.21;67.74
22755;BME280;11544;42.020;23.094;2023-02-13T17:34:55;98735.84;;;3.06;67.56
22755;BME280;11544;42.020;23.094;2023-02-13T17:37:25;98743.47;;;2.98;68.81
22755;BME280;11544;42.020;23.094;2023-02-13T17:39:53;98744.03;;;2.85;68.95
22755;BME280;11544;42.020;23.094;2023-02-13T17:44:48;98744.38;;;3.02;68.36
22755;BME280;11544;42.020;23.094;2023-02-13T17:47:18;98736.75;;;2.62;69.30
22755;BME280;11544;42.020;23.094;2023-02-13T17:49:45;98733.88;;;2.91;69.36
22755;BME280;11544;42.020;23.094;2023-02-13T17:52:17;98735.41;;;2.83;69.18
22755;BME280;11544;42.020;23.094;2023-02-13T17:54:47;98736.78;;;2.65;69.46
22755;BME280;11544;42.020;23.094;2023-02-13T17:57:18;98732.88;;;2.84;69.40
22755;BME280;11544;42.020;23.094;2023-02-13T17:59:52;98735.25;;;2.75;69.01
22755;BME280;11544;42.020;23.094;2023-02-13T18:02:22;98734.38;;;2.73;69.45
22755;BME280;11544;42.020;23.094;2023-02-13T18:04:50;98733.84;;;2.47;70.29
22755;BME280;11544;42.020;23.094;2023-02-13T18:07:19;98739.72;;;2.41;70.90
22755;BME280;11544;42.020;23.094;2023-02-13T18:09:47;98739.88;;;2.49;71.04
22755;BME280;11544;42.020;23.094;2023-02-13T18:12:16;98740.88;;;2.16;72.59
22755;BME280;11544;42.020;23.094;2023-02-13T18:14:44;98747.66;;;2.12;72.62
22755;BME280;11544;42.020;23.094;2023-02-13T18:17:26;98745.50;;;1.93;73.74
22755;BME280;11544;42.020;23.094;2023-02-13T18:19:58;98748.34;;;2.05;73.90
22755;BME280;11544;42.020;23.094;2023-02-13T18:22:25;98750.97;;;2.07;74.78
22755;BME280;11544;42.020;23.094;2023-02-13T18:24:52;98754.19;;;1.97;74.66
22755;BME280;11544;42.020;23.094;2023-02-13T18:27:19;98760.72;;;1.84;74.83
22755;BME280;11544;42.020;23.094;2023-02-13T18:29:54;98760.19;;;1.97;74.83
22755;BME280;11544;42.020;23.094;2023-02-13T18:32:23;98759.16;;;1.90;76.02
22755;BME280;11544;42.020;23.094;2023-02-13T18:34:50;98770.59;;;1.67;76.67
22755;BME280;11544;42.020;23.094;2023-02-13T18:37:19;98770.38;;;1.58;77.31
22755;BME280;11544;42.020;23.094;2023-02-13T18:39:45;98777.44;;;1.66;77.12
22755;BME280;11544;42.020;23.094;2023-02-13T18:42:12;98771.13;;;1.54;77.03
22755;BME280;11544;42.020;23.094;2023-02-13T18:44:40;98771.66;;;1.75;77.33
22755;BME280;11544;42.020;23.094;2023-02-13T18:47:07;98773.03;;;1.61;78.00
22755;BME280;11544;42.020;23.094;2023-02-13T18:49:34;98773.72;;;1.55;77.66
22755;BME280;11544;42.020;23.094;2023-02-13T18:52:01;98775.66;;;1.64;78.04
22755;BME280;11544;42.020;23.094;2023-02-13T18:54:28;98778.16;;;1.61;78.10
22755;BME280;11544;42.020;23.094;2023-02-13T18:56:55;98770.22;;;1.52;78.47
22755;BME280;11544;42.020;23.094;2023-02-13T18:59:22;98775.50;;;1.58;79.11
22755;BME280;11544;42.020;23.094;2023-02-13T19:01:49;98777.38;;;1.65;78.90
22755;BME280;11544;42.020;23.094;2023-02-13T19:04:16;98775.44;;;1.55;78.86
22755;BME280;11544;42.020;23.094;2023-02-13T19:06:44;98779.59;;;1.50;78.97
22755;BME280;11544;42.020;23.094;2023-02-13T19:09:11;98776.97;;;1.48;79.38
22755;BME280;11544;42.020;23.094;2023-02-13T19:11:39;98780.63;;;1.24;80.30
22755;BME280;11544;42.020;23.094;2023-02-13T19:14:09;98782.34;;;1.24;81.23
22755;BME280;11544;42.020;23.094;2023-02-13T19:16:37;98776.16;;;1.49;80.50
22755;BME280;11544;42.020;23.094;2023-02-13T19:19:05;98773.47;;;1.79;80.37
22755;BME280;11544;42.020;23.094;2023-02-13T19:21:37;98774.25;;;1.75;79.08
22755;BME280;11544;42.020;23.094;2023-02-13T19:24:08;98777.88;;;1.50;79.62
22755;BME280;11544;42.020;23.094;2023-02-13T19:26:38;98772.78;;;1.18;80.52
22755;BME280;11544;42.020;23.094;2023-02-13T19:29:14;98777.13;;;1.54;80.15
22755;BME280;11544;42.020;23.094;2023-02-13T19:31:41;98781.59;;;1.28;80.82
22755;BME280;11544;42.020;23.094;2023-02-13T19:34:08;98786.03;;;1.34;80.65
22755;BME280;11544;42.020;23.094;2023-02-13T19:36:36;98787.78;;;1.35;81.17
22755;BME280;11544;42.020;23.094;2023-02-13T19:39:05;98792.03;;;1.34;81.48
22755;BME280;11544;42.020;23.094;2023-02-13T19:41:34;98792.25;;;1.42;81.84
22755;BME280;11544;42.020;23.094;2023-02-13T19:44:02;98794.16;;;1.51;81.14
22755;BME280;11544;42.020;23.094;2023-02-13T19:46:35;98789.06;;;1.52;80.56
22755;BME280;11544;42.020;23.094;2023-02-13T19:49:05;98798.56;;;0.91;81.32
22755;BME280;11544;42.020;23.094;2023-02-13T19:51:33;98789.69;;;0.80;83.14
22755;BME280;11544;42.020;23.094;2023-02-13T19:54:06;98796.19;;;0.97;83.65
22755;BME280;11544;42.020;23.094;2023-02-13T19:56:36;98799.94;;;1.10;83.64
22755;BME280;11544;42.020;23.094;2023-02-13T19:59:04;98795.41;;;1.01;83.43
22755;BME280;11544;42.020;23.094;2023-02-13T20:01:32;98799.69;;;0.99;83.89
22755;BME280;11544;42.020;23.094;2023-02-13T20:03:59;98798.69;;;1.26;83.83
22755;BME280;11544;42.020;23.094;2023-02-13T20:06:34;98801.28;;;0.96;84.10
22755;BME280;11544;42.020;23.094;2023-02-13T20:09:07;98806.84;;;1.11;84.16
22755;BME280;11544;42.020;23.094;2023-02-13T20:11:35;98801.41;;;1.00;83.80
22755;BME280;11544;42.020;23.094;2023-02-13T20:14:02;98809.03;;;0.97;84.61
22755;BME280;11544;42.020;23.094;2023-02-13T20:16:31;98800.81;;;0.79;84.88
22755;BME280;11544;42.020;23.094;2023-02-13T20:19:02;98804.09;;;1.05;84.74
22755;BME280;11544;42.020;23.094;2023-02-13T20:21:40;98803.97;;;0.70;85.16
22755;BME280;11544;42.020;23.094;2023-02-13T20:24:09;98799.94;;;0.78;85.29
22755;BME280;11544;42.020;23.094;2023-02-13T20:26:37;98800.81;;;0.79;85.29
22755;BME280;11544;42.020;23.094;2023-02-13T20:29:04;98796.91;;;1.25;84.79
22755;BME280;11544;42.020;23.094;2023-02-13T20:31:31;98792.78;;;0.98;84.46
22755;BME280;11544;42.020;23.094;2023-02-13T20:34:05;98786.97;;;1.04;84.88
22755;BME280;11544;42.020;23.094;2023-02-13T20:36:32;98786.56;;;0.90;85.07
22755;BME280;11544;42.020;23.094;2023-02-13T20:39:17;98787.38;;;0.88;85.45
22755;BME280;11544;42.020;23.094;2023-02-13T20:41:47;98791.84;;;0.66;86.05
22755;BME280;11544;42.020;23.094;2023-02-13T20:44:19;98784.78;;;0.57;86.61
22755;BME280;11544;42.020;23.094;2023-02-13T20:47:23;98789.13;;;0.60;87.03
22755;BME280;11544;42.020;23.094;2023-02-13T21:05:49;98783.59;;;0.17;90.06
22755;BME280;11544;42.020;23.094;2023-02-13T21:08:26;98786.16;;;0.46;90.35
22755;BME280;11544;42.020;23.094;2023-02-13T21:11:00;98794.78;;;0.48;90.27
22755;BME280;11544;42.020;23.094;2023-02-13T21:13:35;98788.34;;;0.34;90.44
22755;BME280;11544;42.020;23.094;2023-02-13T21:16:11;98782.22;;;0.29;91.42
22755;BME280;11544;42.020;23.094;2023-02-13T21:18:54;98783.63;;;0.48;91.39
22755;BME280;11544;42.020;23.094;2023-02-13T21:21:34;98777.59;;;0.46;90.84
22755;BME280;11544;42.020;23.094;2023-02-13T21:24:06;98778.22;;;0.10;91.62
22755;BME280;11544;42.020;23.094;2023-02-13T21:26:40;98773.66;;;0.01;92.74
22755;BME280;11544;42.020;23.094;2023-02-13T21:29:18;98774.16;;;-0.11;93.86